Nearby METAR Reports

 

KGEU - Glendale, Arizona, USA
Distance from station: S 3mi, 4km
Updated: Sun, 24-Mar-2019 6:58pm MST

 
2019/03/25 01:58 KGEU 250158Z E00000KT 10SM FEW220 24/M03 A3010 RMK LAST
KLUF - Luke Afb/Glendal, Arizona, USA
Distance from station: SW 5mi, 8km
Updated: Sun, 24-Mar-2019 6:58pm MST
Clear
Clear
 Wind from calm
Wind: Calm
Temperature: 75°F , 24°C
Dew Point: 28°F , -2°C
Humidity: 18%
Barometer: 30.07 inHg , 1018.3 hPa
Clouds: Clear
Visibility: 10 miles , 16 km
2019/03/25 01:58 KLUF 250158Z AUTO 00000KT 10SM CLR 24/M02 A3007 RMK AO2 SLP178 T02371020
 
KGYR - Goodyear Municip, Arizona, USA
Distance from station: SSW 11mi, 18km
Updated: Sun, 24-Mar-2019 6:47pm MST
Partly cloudy
Partly cloudy
 Wind from W
Wind: W 6 mph , 9 km/h
Temperature: 75°F , 24°C
Dew Point: 30°F , -1°C
Humidity: 19%
Barometer: 30.08 inHg , 1018.6 hPa
Clouds: Partly cloudy
Visibility: 10 miles , 16 km
Cloud details: Partly cloudy 25000 ft
2019/03/25 01:47 KGYR 250147Z 26005KT 10SM SCT250 24/M01 A3008
KDVT - Phoenix/Deer Vly, Arizona, USA
Distance from station: ENE 16mi, 26km
Updated: Sun, 24-Mar-2019 6:53pm MST
Clear
Clear
 Wind from W
Wind: W 6 mph , 9 km/h
Temperature: 72°F , 22°C
Dew Point: 23°F , -5°C
Humidity: 16%
Barometer: 30.10 inHg , 1019.3 hPa
Clouds: Clear
Visibility: 10 miles , 16 km
2019/03/25 01:53 KDVT 250153Z 28005KT 10SM CLR 22/M05 A3010 RMK AO2 SLP182 T02221050
 
KPHX - Phoenix/Sky Hrbr, Arizona, USA
Distance from station: ESE 19mi, 31km
Updated: Sun, 24-Mar-2019 6:51pm MST
Partly cloudy
Partly cloudy
 Wind from NW
Wind: NW 9 mph , 15 km/h, Gust: 17 mph , 28 km/h
Temperature: 77°F , 25°C
Dew Point: 27°F , -3°C
Humidity: 15%
Barometer: 30.07 inHg , 1018.3 hPa
Clouds: Partly cloudy
Visibility: 10 miles , 16 km
Cloud details: Partly cloudy 25000 ft
2019/03/25 01:51 KPHX 250151Z 31008G15KT 10SM SCT250 25/M03 A3007 RMK AO2 SLP170 T02501028
KSDL - Scottsdale, Arizona, USA
Distance from station: E 23mi, 37km
Updated: Sun, 24-Mar-2019 6:53pm MST
Clear
Clear
 Wind from W
Wind: W 3 mph , 6 km/h
Temperature: 73°F , 23°C
Dew Point: 21°F , -6°C
Humidity: 14%
Barometer: 30.11 inHg , 1019.6 hPa
Clouds: Clear
Visibility: 10 miles , 16 km
2019/03/25 01:53 KSDL 250153Z 28003KT 10SM CLR 23/M06 A3011 RMK AO2 SLP182 T02331061 $
 
KBXK - Buckeye, Arizona, USA
Distance from station: WSW 24mi, 39km
Updated: Sun, 24-Mar-2019 7:15pm MST
Clear
Clear
 Wind from NNE
Wind: NNE 5 mph , 7 km/h
Temperature: 70°F , 21°C
Dew Point: 32°F , 0°C
Humidity: 25%
Barometer: 30.11 inHg , 1019.6 hPa
Clouds: Clear
Visibility: 10 miles , 16 km
2019/03/25 02:15 KBXK 250215Z AUTO 03004KT 10SM CLR 21/00 A3011 RMK AO1
KFFZ - Mesa/Falcon Fld, Arizona, USA
Distance from station: E 35mi, 56km
Updated: Sun, 24-Mar-2019 6:54pm MST
Clear
Clear
 Wind from calm
Wind: Calm
Temperature: 75°F , 24°C
Dew Point: 25°F , -4°C
Humidity: 15%
Barometer: 30.09 inHg , 1019 hPa
Clouds: Clear
Visibility: 10 miles , 16 km
2019/03/25 01:54 KFFZ 250154Z 00000KT 10SM CLR 24/M04 A3009 RMK AO2 SLP175 T02391044
 
KIWA - Chandler/Mesa, Arizona, USA
Distance from station: ESE 42mi, 68km
Updated: Sun, 24-Mar-2019 6:50pm MST
Few Clouds
Few Clouds
 Wind from calm
Wind: Calm
Temperature: 75°F , 24°C
Dew Point: 28°F , -2°C
Humidity: 18%
Barometer: 30.10 inHg , 1019.3 hPa
Clouds: Few Clouds
Visibility: 20 miles , 32 km
Cloud details: Few Clouds 20000 ft
2019/03/25 01:50 KIWA 250150Z 00000KT 20SM FEW200 24/M02 A3010
KCGZ - Casa Granda, Arizona, USA
Distance from station: SE 53mi, 85km
Updated: Sun, 24-Mar-2019 6:56pm MST
Clear
Clear
 Wind from N
Wind: N 6 mph , 9 km/h
Temperature: 70°F , 21°C
Dew Point: 36°F , 2°C
Humidity: 29%
Barometer: 30.11 inHg , 1019.6 hPa
Clouds: Clear
Visibility: 10 miles , 16 km
2019/03/25 01:56 KCGZ 250156Z AUTO 36005KT 10SM CLR 21/02 A3011 RMK AO2 SLP192 T02060022 PNO $
 
KGXF - Gila Bend (aaf), Arizona, USA
Distance from station: SSW 54mi, 87km
Updated: Sun, 24-Mar-2019 6:58pm MST
Clear
Clear
 Wind from NW
Wind: NW 5 mph , 7 km/h
Temperature: 75°F , 24°C
Dew Point: 25°F , -4°C
Humidity: 15%
Barometer: 30.07 inHg , 1018.3 hPa
Clouds: Clear
Visibility: 10 miles , 16 km
2019/03/25 01:58 KGXF 250158Z AUTO 31004KT 10SM CLR 24/M04 A3007 RMK AO2 SLP177 T02351038
KPAN - Payson, Arizona, USA
Distance from station: NE 73mi, 117km
Updated: Sun, 24-Mar-2019 7:15pm MST
Clear
Clear
 Wind from WSW
Wind: WSW 3 mph , 6 km/h
Temperature: 54°F , 12°C
Dew Point: 27°F , -3°C
Humidity: 35%
Barometer: 30.24 inHg , 1024 hPa
Clouds: Clear
Visibility: 10 miles , 16 km
2019/03/25 02:15 KPAN 250215Z AUTO 24003KT 10SM CLR 12/M03 A3024 RMK AO2
 
KPRC - Prescott, Arizona, USA
Distance from station: N 75mi, 121km
Updated: Sun, 24-Mar-2019 6:53pm MST
Clear
Clear
 Wind from SW
Wind: SW 9 mph , 15 km/h
Temperature: 55°F , 13°C
Dew Point: 19°F , -7°C
Humidity: 24%
Barometer: 30.22 inHg , 1023.4 hPa
Clouds: Clear
Visibility: 10 miles , 16 km
2019/03/25 01:53 KPRC 250153Z 22008KT 10SM CLR 13/M07 A3022 RMK AO2 SLP203 T01331072
KSEZ - Sedona, Arizona, USA
Distance from station: NNE 93mi, 150km
Updated: Sun, 24-Mar-2019 7:15pm MST
Clear
Clear
 Wind from SW
Wind: SW 9 mph , 15 km/h
Temperature: 59°F , 15°C
Dew Point: 28°F , -2°C
Humidity: 31%
Barometer: 30.22 inHg , 1023.4 hPa
Clouds: Clear
Visibility: 10 miles , 16 km
2019/03/25 02:15 KSEZ 250215Z AUTO 22008KT 10SM CLR 15/M02 A3022 RMK AO2
 
KFLG - Flagstaff, Arizona, USA
Distance from station: NNE 114mi, 184km
Updated: Sun, 24-Mar-2019 6:57pm MST
Clear
Clear
 Wind from SW
Wind: SW 8 mph , 13 km/h
Temperature: 46°F , 8°C
Wind Chill: 42°F , 6°C
Dew Point: 25°F , -4°C
Humidity: 43%
Barometer: 30.27 inHg , 1025.1 hPa
Clouds: Clear
Visibility: 10 miles , 16 km
2019/03/25 01:57 KFLG 250157Z 22007KT 10SM CLR 08/M04 A3027 RMK AO2 SLP227 T00781044
KRYN - Tucson/Ryan Fld, Arizona, USA
Distance from station: SE 118mi, 190km
Updated: Sun, 24-Mar-2019 6:45pm MST
Clear
Clear
 Wind from NNW
Wind: NNW 6 mph , 9 km/h
Temperature: 70°F , 21°C
Dew Point: 30°F , -1°C
Humidity: 23%
Barometer: 30.13 inHg , 1020.3 hPa
Clouds: Clear
Visibility: 10 miles , 16 km
2019/03/25 01:45 KRYN 250145Z 33005KT 10SM CLR 21/M01 A3013
 
KTUS - Tucson, Arizona, USA
Distance from station: SE 127mi, 204km
Updated: Sun, 24-Mar-2019 6:53pm MST
Clear
Clear
 Wind from NNW
Wind: NNW 10 mph , 17 km/h, Gust: 18 mph , 30 km/h
Temperature: 72°F , 22°C
Dew Point: 27°F , -3°C
Humidity: 19%
Barometer: 30.14 inHg , 1020.7 hPa
Clouds: Clear
Visibility: 10 miles , 16 km
2019/03/25 01:53 KTUS 250153Z 34009G16KT 10SM CLR 22/M03 A3014 RMK AO2 SLP180 T02171033
KDMA - Davis/Tucson, Arizona, USA
Distance from station: SE 128mi, 206km
Updated: Sun, 24-Mar-2019 6:58pm MST
Clear
Clear
 Wind from NNW
Wind: NNW 8 mph , 13 km/h
Temperature: 66°F , 19°C
Dew Point: 30°F , -1°C
Humidity: 26%
Barometer: 30.12 inHg , 1020 hPa
Clouds: Clear
Visibility: 10 miles , 16 km
2019/03/25 01:58 KDMA 250158Z AUTO 34007KT 10SM CLR 19/M01 A3012 RMK AO2 SLP182 T01851014
 
KINW - Winslow, Arizona, USA
Distance from station: NE 136mi, 219km
Updated: Sun, 24-Mar-2019 6:56pm MST
Clear
Clear
 Wind from W
Wind: W 8 mph , 13 km/h
Temperature: 59°F , 15°C
Dew Point: 18°F , -8°C
Humidity: 20%
Barometer: 30.18 inHg , 1022 hPa
Clouds: Clear
Visibility: 10 miles , 16 km
2019/03/25 01:56 KINW 250156Z AUTO 27007KT 10SM CLR 15/M08 A3018 RMK AO2 SLP194 T01501078
KHII - Lake Havasu City, Arizona, USA
Distance from station: WNW 136mi, 220km
Updated: Sun, 24-Mar-2019 7:15pm MST
Clear
Clear
 Wind from calm
Wind: Calm
Temperature: 72°F , 22°C
Dew Point: 32°F , 0°C
Humidity: 23%
Barometer: 30.09 inHg , 1019 hPa
Clouds: Clear
Visibility: 10 miles , 16 km
2019/03/25 02:15 KHII 250215Z AUTO 00000KT 10SM CLR 22/00 A3009 RMK AO2